Time;durP1;ratioP1;P1;durP2;ratioP2;P2;SDS_P1;SDS_P2;PMS_P1;PMS_P2;Temp;Humidity;BMP_temperature;BMP_pressure;BME280_temperature;BME280_humidity;BME280_pressure;Samples;Min_cycle;Max_cycle;Signal;HPM_P1;HPM_P2
2021/12/06 00:00:23;;;;;;;66.20;31.33;;;;;;;-145.45;100.00;62759.84;5297736;28;19962;-82
2021/12/06 00:02:58;;;;;;;61.08;29.65;;;;;;;-145.45;100.00;62759.84;5286392;27;20068;-82
2021/12/06 00:05:30;;;;;;;62.75;31.42;;;;;;;-145.45;100.00;62759.84;5307309;28;20025;-82
2021/12/06 00:08:03;;;;;;;72.22;35.28;;;;;;;-145.45;100.00;62759.84;5308493;28;20016;-82
2021/12/06 00:10:35;;;;;;;68.90;36.80;;;;;;;-145.45;100.00;62759.84;5298022;28;20067;-82
2021/12/06 00:13:07;;;;;;;74.30;35.95;;;;;;;-145.45;100.00;62759.84;5300651;28;20082;-82
2021/12/06 00:15:38;;;;;;;67.68;34.67;;;;;;;-145.45;100.00;62759.84;5285428;28;20060;-82
2021/12/06 00:18:10;;;;;;;73.10;36.10;;;;;;;-145.45;100.00;62759.84;5289392;28;20468;-82
2021/12/06 00:20:42;;;;;;;75.68;38.08;;;;;;;-145.45;100.00;62759.84;5326168;27;20062;-82
2021/12/06 00:23:16;;;;;;;79.18;34.83;;;;;;;-145.45;100.00;62759.84;5323160;28;20102;-82
2021/12/06 00:25:48;;;;;;;76.70;38.05;;;;;;;-145.45;100.00;62759.84;5295448;28;20028;-82
2021/12/06 00:28:19;;;;;;;78.45;39.63;;;;;;;-145.45;100.00;62759.84;5303826;28;20020;-82
2021/12/06 00:30:52;;;;;;;84.70;40.00;;;;;;;-145.45;100.00;62759.84;5293520;28;20062;-82
2021/12/06 00:33:25;;;;;;;69.20;33.40;;;;;;;-145.45;100.00;62759.84;5305255;28;20059;-82
2021/12/06 00:36:03;;;;;;;83.93;38.65;;;;;;;-145.45;100.00;62759.84;5298120;28;20016;-82
2021/12/06 00:38:36;;;;;;;82.38;39.05;;;;;;;-145.45;100.00;62759.84;5295087;28;20029;-82
2021/12/06 00:41:08;;;;;;;85.75;39.13;;;;;;;-145.45;100.00;62759.84;5300038;28;20572;-82
2021/12/06 00:43:39;;;;;;;81.30;37.33;;;;;;;-145.45;100.00;62759.84;5303048;28;20147;-81
2021/12/06 00:46:11;;;;;;;81.30;40.47;;;;;;;-145.45;100.00;62759.84;5316606;28;20396;-82
2021/12/06 00:48:42;;;;;;;77.85;36.35;;;;;;;-145.45;100.00;62759.84;5300130;28;20023;-82
2021/12/06 00:51:15;;;;;;;82.55;40.65;;;;;;;-145.45;100.00;62759.84;5285750;28;20381;-82
2021/12/06 00:53:47;;;;;;;84.78;39.28;;;;;;;-145.45;100.00;62759.84;5318819;28;20051;-81
2021/12/06 00:56:19;;;;;;;73.32;35.50;;;;;;;-145.45;100.00;62759.84;5319328;28;20516;-81
2021/12/06 00:58:53;;;;;;;67.07;32.58;;;;;;;-145.45;100.00;62759.84;5292488;28;20036;-81
2021/12/06 01:01:25;;;;;;;63.72;33.13;;;;;;;-145.45;100.00;62759.84;5322009;28;20032;-80
2021/12/06 01:03:56;;;;;;;60.28;29.52;;;;;;;-145.45;100.00;62759.84;5307061;28;20155;-81
2021/12/06 01:06:28;;;;;;;76.38;34.42;;;;;;;-145.45;100.00;62759.84;5288676;28;20067;-81
2021/12/06 01:09:00;;;;;;;69.22;32.50;;;;;;;-145.45;100.00;62759.84;5308337;28;20021;-81
2021/12/06 01:11:31;;;;;;;80.05;41.05;;;;;;;-145.45;100.00;62759.84;5301338;28;20032;-82
2021/12/06 01:14:03;;;;;;;89.85;41.40;;;;;;;-145.45;100.00;62759.84;5287735;28;20025;-82
2021/12/06 01:16:35;;;;;;;80.82;38.58;;;;;;;-145.45;100.00;62759.84;5291003;28;20068;-81
2021/12/06 01:19:07;;;;;;;95.88;41.33;;;;;;;-145.45;100.00;62759.84;5290476;28;20047;-82
2021/12/06 01:21:47;;;;;;;91.68;40.65;;;;;;;-145.45;100.00;62759.84;5294606;28;20111;-82
2021/12/06 01:24:25;;;;;;;95.60;44.15;;;;;;;-145.45;100.00;62759.84;5307751;28;20024;-82
2021/12/06 01:27:11;;;;;;;91.80;43.22;;;;;;;-145.45;100.00;62759.84;5317911;28;20036;-82
2021/12/06 01:30:00;;;;;;;97.53;42.78;;;;;;;-145.45;100.00;62759.84;5300584;28;20116;-82
2021/12/06 01:40:26;;;;;;;103.78;44.67;;;;;;;-145.45;100.00;62759.84;5311328;28;20045;-82
2021/12/06 01:43:06;;;;;;;100.90;44.08;;;;;;;-145.45;100.00;62759.84;5308033;28;20055;-83
2021/12/06 01:45:37;;;;;;;93.53;39.75;;;;;;;-145.45;100.00;62759.84;5302351;28;20074;-83
2021/12/06 01:48:09;;;;;;;92.38;41.47;;;;;;;-145.45;100.00;62759.84;5301634;28;20012;-83
2021/12/06 01:50:41;;;;;;;87.25;41.63;;;;;;;-145.45;100.00;62759.84;5308038;28;20038;-83
2021/12/06 01:53:12;;;;;;;93.22;41.15;;;;;;;-145.45;100.00;62759.84;5287806;28;20086;-83
2021/12/06 01:55:44;;;;;;;91.18;41.13;;;;;;;-145.45;100.00;62759.84;5320235;28;20107;-83
2021/12/06 01:58:16;;;;;;;95.18;40.38;;;;;;;-145.45;100.00;62759.84;5300543;28;20125;-83
2021/12/06 02:00:51;;;;;;;86.72;40.00;;;;;;;-145.45;100.00;62759.84;5324799;28;20434;-83
2021/12/06 02:03:22;;;;;;;80.93;37.40;;;;;;;-145.45;100.00;62759.84;5301457;28;20024;-83
2021/12/06 02:05:57;;;;;;;87.88;38.38;;;;;;;-145.45;100.00;62759.84;5297175;28;20021;-83
2021/12/06 02:08:29;;;;;;;77.05;37.60;;;;;;;-145.45;100.00;62759.84;5291658;28;20048;-82
2021/12/06 02:11:02;;;;;;;79.50;37.58;;;;;;;-145.45;100.00;62759.84;5318081;28;20154;-83
2021/12/06 02:13:46;;;;;;;66.07;32.97;;;;;;;-145.45;100.00;62759.84;5302201;28;20107;-83
2021/12/06 02:16:22;;;;;;;85.43;38.75;;;;;;;-145.45;100.00;62759.84;5301394;28;20028;-83
2021/12/06 02:19:01;;;;;;;91.73;39.87;;;;;;;-145.45;100.00;62759.84;5301350;28;20124;-83
2021/12/06 02:21:37;;;;;;;83.88;39.05;;;;;;;-145.45;100.00;62759.84;5319769;28;20020;-83
2021/12/06 02:24:10;;;;;;;66.60;34.28;;;;;;;-145.45;100.00;62759.84;5285396;28;20032;-83
2021/12/06 02:26:43;;;;;;;71.55;34.20;;;;;;;-145.45;100.00;62759.84;5298497;28;20025;-83
2021/12/06 02:29:14;;;;;;;93.10;38.40;;;;;;;-145.45;100.00;62759.84;5297462;28;20062;-82
2021/12/06 02:31:46;;;;;;;87.10;39.35;;;;;;;-145.45;100.00;62759.84;5301490;28;20066;-83
2021/12/06 02:34:21;;;;;;;85.70;38.25;;;;;;;-145.45;100.00;62759.84;5305026;28;20039;-83
2021/12/06 02:36:53;;;;;;;85.53;37.90;;;;;;;-145.45;100.00;62759.84;5306978;28;20024;-83
2021/12/06 02:39:26;;;;;;;83.90;37.92;;;;;;;-145.45;100.00;62759.84;5299422;28;20028;-83
2021/12/06 02:42:00;;;;;;;84.70;36.40;;;;;;;-145.45;100.00;62759.84;5298258;28;20094;-81
2021/12/06 02:44:35;;;;;;;83.90;37.47;;;;;;;-145.45;100.00;62759.84;5304541;28;20040;-81
2021/12/06 02:47:07;;;;;;;83.03;37.22;;;;;;;-145.45;100.00;62759.84;5305984;28;20499;-81
2021/12/06 02:49:42;;;;;;;81.18;35.85;;;;;;;-145.45;100.00;62759.84;5300006;28;20438;-81
2021/12/06 02:52:14;;;;;;;82.55;36.80;;;;;;;-145.45;100.00;62759.84;5318038;28;20440;-82
2021/12/06 02:54:54;;;;;;;85.80;38.97;;;;;;;-145.45;100.00;62759.84;5291890;28;20122;-82
2021/12/06 02:57:35;;;;;;;90.35;37.25;;;;;;;-145.45;100.00;62759.84;5289545;28;20040;-81
2021/12/06 03:00:09;;;;;;;74.10;35.35;;;;;;;-145.45;100.00;62759.84;5287224;28;20048;-82
2021/12/06 03:02:41;;;;;;;88.45;37.47;;;;;;;-145.45;100.00;62759.84;5285911;28;20047;-82
2021/12/06 03:05:13;;;;;;;95.07;38.83;;;;;;;-145.45;100.00;62759.84;5305054;28;20024;-82
2021/12/06 03:07:50;;;;;;;94.75;39.15;;;;;;;-145.45;100.00;62759.84;5300462;28;20777;-81
2021/12/06 03:10:21;;;;;;;89.40;39.40;;;;;;;-145.45;100.00;62759.84;5314736;28;20024;-82
2021/12/06 03:12:53;;;;;;;89.97;40.22;;;;;;;-145.45;100.00;62759.84;5322513;28;20431;-82
2021/12/06 03:15:25;;;;;;;111.55;41.40;;;;;;;-145.45;100.00;62759.84;5299644;28;20028;-82
2021/12/06 03:17:57;;;;;;;113.60;39.95;;;;;;;-145.45;100.00;62759.84;5296771;28;20492;-82
2021/12/06 03:20:29;;;;;;;96.35;40.38;;;;;;;-145.45;100.00;62759.84;5292047;28;20027;-82
2021/12/06 03:23:00;;;;;;;90.57;38.85;;;;;;;-145.45;100.00;62759.84;5323359;28;20029;-82
2021/12/06 03:25:32;;;;;;;89.78;39.13;;;;;;;-145.45;100.00;62759.84;5300640;28;20124;-82
2021/12/06 03:28:03;;;;;;;86.82;38.55;;;;;;;-145.45;100.00;62759.84;5291980;28;20021;-82
2021/12/06 03:30:35;;;;;;;85.35;37.10;;;;;;;-145.45;100.00;62759.84;5305087;28;20024;-82
2021/12/06 03:33:07;;;;;;;98.47;41.88;;;;;;;-145.45;100.00;62759.84;5290924;28;20115;-81
2021/12/06 03:35:38;;;;;;;87.82;36.97;;;;;;;-145.45;100.00;62759.84;5301968;28;20028;-81
2021/12/06 03:38:10;;;;;;;92.53;41.08;;;;;;;-145.45;100.00;62759.84;5290557;28;20086;-82
2021/12/06 03:40:42;;;;;;;85.30;36.35;;;;;;;-145.45;100.00;62759.84;5289751;28;20484;-82
2021/12/06 03:43:13;;;;;;;90.75;38.83;;;;;;;-145.45;100.00;62759.84;5310791;28;20024;-81
2021/12/06 03:45:45;;;;;;;79.65;36.75;;;;;;;-145.45;100.00;62759.84;5300453;28;20024;-81
2021/12/06 03:48:17;;;;;;;92.28;40.10;;;;;;;-145.45;100.00;62759.84;5300015;28;20028;-81
2021/12/06 03:50:49;;;;;;;104.63;41.72;;;;;;;-145.45;100.00;62759.84;5310922;28;20020;-82
2021/12/06 03:53:20;;;;;;;102.05;41.70;;;;;;;-145.45;100.00;62759.84;5308554;28;20386;-81
2021/12/06 03:55:52;;;;;;;107.90;44.53;;;;;;;-145.45;100.00;62759.84;5298529;28;20016;-82
2021/12/06 03:58:24;;;;;;;102.68;43.63;;;;;;;-145.45;100.00;62759.84;5290371;28;20072;-82
2021/12/06 04:00:56;;;;;;;97.63;42.63;;;;;;;-145.45;100.00;62759.84;5292684;28;20466;-82
2021/12/06 04:03:28;;;;;;;95.40;41.45;;;;;;;-145.45;100.00;62759.84;5310821;28;20024;-82
2021/12/06 04:06:00;;;;;;;108.45;43.90;;;;;;;-145.45;100.00;62759.84;5299562;28;20388;-81
2021/12/06 04:08:33;;;;;;;100.95;42.83;;;;;;;-145.45;100.00;62759.84;5297869;28;20032;-81
2021/12/06 04:11:05;;;;;;;87.88;37.70;;;;;;;-145.45;100.00;62759.84;5306348;28;20107;-82
2021/12/06 04:13:36;;;;;;;96.40;37.58;;;;;;;-145.45;100.00;62759.84;5287454;28;20768;-81
2021/12/06 04:16:09;;;;;;;92.82;39.45;;;;;;;-145.45;100.00;62759.84;5306902;28;20036;-81
2021/12/06 04:18:40;;;;;;;99.85;42.70;;;;;;;-145.45;100.00;62759.84;5296920;28;20035;-81
2021/12/06 04:21:12;;;;;;;103.78;42.58;;;;;;;-145.45;100.00;62759.84;5297371;28;20032;-81
2021/12/06 04:23:44;;;;;;;97.22;41.88;;;;;;;-145.45;100.00;62759.84;5291664;28;20026;-81
2021/12/06 04:26:16;;;;;;;98.65;43.83;;;;;;;-145.45;100.00;62759.84;5298455;28;20496;-82
2021/12/06 04:28:57;;;;;;;102.55;44.10;;;;;;;-145.45;100.00;62759.84;5291315;28;20028;-82
2021/12/06 04:31:42;;;;;;;98.30;39.63;;;;;;;-145.45;100.00;62759.84;5300348;27;20392;-81
2021/12/06 04:34:14;;;;;;;97.05;39.45;;;;;;;-145.45;100.00;62759.84;5305362;28;20549;-82
2021/12/06 04:36:46;;;;;;;106.10;44.58;;;;;;;-145.45;100.00;62759.84;5295371;28;20085;-82
2021/12/06 04:39:20;;;;;;;115.63;43.28;;;;;;;-145.45;100.00;62759.84;5297017;28;20069;-82
2021/12/06 04:41:52;;;;;;;108.25;43.72;;;;;;;-145.45;100.00;62759.84;5323301;27;20036;-81
2021/12/06 04:44:24;;;;;;;118.10;43.13;;;;;;;-145.45;100.00;62759.84;5305175;28;20032;-81
2021/12/06 04:46:56;;;;;;;72.72;33.33;;;;;;;-145.45;100.00;62759.84;5312555;28;20059;-81
2021/12/06 04:49:29;;;;;;;88.95;37.45;;;;;;;-145.45;100.00;62759.84;5300880;28;20104;-81
2021/12/06 04:52:03;;;;;;;103.25;41.25;;;;;;;-145.45;100.00;62759.84;5301209;28;20032;-82
2021/12/06 04:54:40;;;;;;;107.85;42.00;;;;;;;-145.45;100.00;62759.84;5307087;28;20024;-81
2021/12/06 04:57:20;;;;;;;87.15;35.38;;;;;;;-145.45;100.00;62759.84;5310671;28;20034;-81
2021/12/06 05:00:05;;;;;;;91.22;36.28;;;;;;;-145.45;100.00;62759.84;5296028;28;20051;-81
2021/12/06 05:02:39;;;;;;;91.80;33.63;;;;;;;-145.45;100.00;62759.84;5293590;28;20032;-79
2021/12/06 05:05:18;;;;;;;90.53;38.13;;;;;;;-145.45;100.00;62759.84;5312815;28;20419;-81
2021/12/06 05:07:56;;;;;;;97.70;40.78;;;;;;;-145.45;100.00;62759.84;5311448;28;20056;-80
2021/12/06 05:10:28;;;;;;;106.53;39.42;;;;;;;-145.45;100.00;62759.84;5295271;28;20021;-82
2021/12/06 05:13:00;;;;;;;106.65;40.78;;;;;;;-145.45;100.00;62759.84;5292103;28;20028;-82
2021/12/06 05:15:32;;;;;;;120.40;35.10;;;;;;;-145.45;100.00;62759.84;5292453;28;20119;-81
2021/12/06 05:18:04;;;;;;;107.65;34.92;;;;;;;-145.45;100.00;62759.84;5290775;28;20446;-81
2021/12/06 05:20:37;;;;;;;89.93;34.47;;;;;;;-145.45;100.00;62759.84;5291210;28;20056;-82
2021/12/06 05:23:10;;;;;;;111.97;40.33;;;;;;;-145.45;100.00;62759.84;5304202;28;20490;-81
2021/12/06 05:25:42;;;;;;;98.68;36.50;;;;;;;-145.45;100.00;62759.84;5304567;28;20021;-82
2021/12/06 05:28:15;;;;;;;282.83;39.97;;;;;;;-145.45;100.00;62759.84;5288825;28;20022;-82
2021/12/06 05:30:48;;;;;;;127.05;38.75;;;;;;;-145.45;100.00;62759.84;5294548;28;20039;-81
2021/12/06 05:33:29;;;;;;;122.20;42.35;;;;;;;-145.45;100.00;62759.84;5302136;28;20135;-81
2021/12/06 05:36:03;;;;;;;265.00;52.05;;;;;;;-145.45;100.00;62759.84;5293437;28;20113;-81
2021/12/06 05:38:34;;;;;;;475.10;58.85;;;;;;;-145.45;100.00;62759.84;5309318;28;20544;-81
2021/12/06 05:41:06;;;;;;;559.95;59.88;;;;;;;-145.45;100.00;62759.84;5292000;28;20063;-82
2021/12/06 05:43:38;;;;;;;565.42;66.18;;;;;;;-145.45;100.00;62759.84;5306984;28;20024;-82
2021/12/06 05:46:09;;;;;;;513.75;63.25;;;;;;;-145.45;100.00;62759.84;5302643;28;20375;-82
2021/12/06 05:48:47;;;;;;;504.40;61.00;;;;;;;-145.45;100.00;62759.84;5326301;28;20382;-82
2021/12/06 05:51:19;;;;;;;630.30;77.00;;;;;;;-145.45;100.00;62759.84;5303299;28;20020;-81
2021/12/06 05:53:51;;;;;;;590.22;67.93;;;;;;;-145.45;100.00;62759.84;5296995;28;20047;-81
2021/12/06 05:56:22;;;;;;;662.35;76.20;;;;;;;-145.45;100.00;62759.84;5308440;28;20044;-83
2021/12/06 05:58:54;;;;;;;700.38;78.95;;;;;;;-145.45;100.00;62759.84;5295512;28;20485;-82
2021/12/06 06:01:29;;;;;;;811.83;88.90;;;;;;;-145.45;100.00;62759.84;5318380;28;20033;-82
2021/12/06 06:04:01;;;;;;;665.38;77.10;;;;;;;-145.45;100.00;62759.84;5301661;28;20464;-82
2021/12/06 06:06:36;;;;;;;697.60;78.80;;;;;;;-145.45;100.00;62759.84;5298798;28;20074;-82
2021/12/06 06:09:07;;;;;;;692.78;77.47;;;;;;;-145.45;100.00;62759.84;5308424;28;20036;-82
2021/12/06 06:11:41;;;;;;;753.22;82.85;;;;;;;-145.45;100.00;62759.84;5300444;28;20028;-82
2021/12/06 06:14:12;;;;;;;611.90;73.20;;;;;;;-145.45;100.00;62759.84;5296589;28;20510;-83
2021/12/06 06:16:52;;;;;;;688.90;78.95;;;;;;;-145.45;100.00;62759.84;5294843;28;20025;-83
2021/12/06 06:19:25;;;;;;;571.83;71.22;;;;;;;-145.45;100.00;62759.84;5291251;28;20037;-82
2021/12/06 06:21:57;;;;;;;609.88;71.38;;;;;;;-145.45;100.00;62759.84;5307819;27;20047;-83
2021/12/06 06:24:28;;;;;;;549.97;73.40;;;;;;;-145.45;100.00;62759.84;5302650;28;20107;-83
2021/12/06 06:27:00;;;;;;;675.88;83.22;;;;;;;-145.45;100.00;62759.84;5323470;28;20028;-82
2021/12/06 06:29:32;;;;;;;554.47;71.93;;;;;;;-145.45;100.00;62759.84;5324002;28;20025;-82
2021/12/06 06:32:05;;;;;;;652.50;79.03;;;;;;;-145.45;100.00;62759.84;5315075;28;20066;-82
2021/12/06 06:34:37;;;;;;;645.38;76.70;;;;;;;-145.45;100.00;62759.84;5310086;28;20039;-82
2021/12/06 06:37:10;;;;;;;558.70;73.28;;;;;;;-145.45;100.00;62759.84;5309352;28;20020;-82
2021/12/06 06:39:42;;;;;;;534.85;69.18;;;;;;;-145.45;100.00;62759.84;5308828;28;20044;-83
2021/12/06 06:42:17;;;;;;;525.75;71.70;;;;;;;-145.45;100.00;62759.84;5298729;28;20044;-83
2021/12/06 06:44:53;;;;;;;588.67;76.10;;;;;;;-145.45;100.00;62759.84;5327096;28;20029;-83
2021/12/06 06:47:25;;;;;;;562.85;74.30;;;;;;;-145.45;100.00;62759.84;5304431;28;20034;-83
2021/12/06 06:50:00;;;;;;;504.42;73.50;;;;;;;-145.45;100.00;62759.84;5312935;28;20024;-82
2021/12/06 06:52:34;;;;;;;524.47;75.22;;;;;;;-145.45;100.00;62759.84;5292546;28;20025;-83
2021/12/06 06:55:07;;;;;;;585.65;81.15;;;;;;;-145.45;100.00;62759.84;5316735;28;20032;-82
2021/12/06 06:57:43;;;;;;;609.08;77.25;;;;;;;-145.45;100.00;62759.84;5308631;28;20027;-82
2021/12/06 07:00:18;;;;;;;549.17;77.80;;;;;;;-145.45;100.00;62759.84;5307451;28;20034;-82
2021/12/06 07:02:49;;;;;;;625.35;85.13;;;;;;;-145.45;100.00;62759.84;5288063;27;20477;-83
2021/12/06 07:05:21;;;;;;;609.67;81.18;;;;;;;-145.45;100.00;62759.84;5326435;27;20035;-82
2021/12/06 07:07:53;;;;;;;599.13;82.38;;;;;;;-145.45;100.00;62759.84;5303602;28;20119;-82
2021/12/06 07:10:24;;;;;;;522.40;76.95;;;;;;;-145.45;100.00;62759.84;5295181;28;20036;-83
2021/12/06 07:12:59;;;;;;;519.65;78.85;;;;;;;-145.45;100.00;62759.84;5300749;28;20039;-83
2021/12/06 07:15:33;;;;;;;370.98;64.85;;;;;;;-145.45;100.00;62759.84;5308243;27;20124;-83
2021/12/06 07:18:05;;;;;;;544.95;81.20;;;;;;;-145.45;100.00;62759.84;5306398;28;20040;-83
2021/12/06 07:20:37;;;;;;;491.23;76.78;;;;;;;-145.45;100.00;62759.84;5325024;28;20008;-83
2021/12/06 07:23:09;;;;;;;406.85;70.25;;;;;;;-145.45;100.00;62759.84;5297186;28;20035;-83
2021/12/06 07:25:41;;;;;;;509.75;81.60;;;;;;;-145.45;100.00;62759.84;5307211;28;20066;-83
2021/12/06 07:28:13;;;;;;;613.80;89.05;;;;;;;-145.45;100.00;62759.84;5316150;27;20027;-83
2021/12/06 07:30:44;;;;;;;424.80;74.78;;;;;;;-145.45;100.00;62759.84;5328783;27;20015;-83
2021/12/06 07:33:23;;;;;;;423.52;73.80;;;;;;;-145.45;100.00;62759.84;5327773;27;20499;-83
2021/12/06 07:35:55;;;;;;;451.00;80.90;;;;;;;-145.45;100.00;62759.84;5327740;27;20023;-83
2021/12/06 07:38:29;;;;;;;522.95;84.43;;;;;;;-145.45;100.00;62759.84;5327761;27;20034;-83
2021/12/06 07:41:01;;;;;;;403.33;78.00;;;;;;;-145.45;100.00;62759.84;5326459;27;20039;-83
2021/12/06 07:43:33;;;;;;;532.33;83.57;;;;;;;-145.45;100.00;62759.84;5322473;27;20020;-83
2021/12/06 07:46:07;;;;;;;402.25;74.05;;;;;;;-145.45;100.00;62759.84;5304929;27;20124;-85
2021/12/06 07:48:39;;;;;;;423.60;77.10;;;;;;;-145.45;100.00;62759.84;5286313;28;20048;-83
2021/12/06 07:51:11;;;;;;;310.30;69.55;;;;;;;-145.45;100.00;62759.84;5301960;28;20044;-83
2021/12/06 07:53:43;;;;;;;309.98;71.78;;;;;;;-145.45;100.00;62759.84;5306968;28;20020;-82
2021/12/06 07:56:15;;;;;;;274.70;70.60;;;;;;;-145.45;100.00;62759.84;5306249;28;20012;-83
2021/12/06 07:58:47;;;;;;;285.30;73.22;;;;;;;-145.45;100.00;62759.84;5306450;28;20044;-83
2021/12/06 08:01:19;;;;;;;307.75;76.88;;;;;;;-145.45;100.00;62759.84;5307064;28;20517;-83
2021/12/06 08:03:51;;;;;;;372.63;82.65;;;;;;;-145.45;100.00;62759.84;5315848;27;20088;-84
2021/12/06 08:06:23;;;;;;;344.23;79.68;;;;;;;-145.45;100.00;62759.84;5328383;27;20455;-83
2021/12/06 08:08:55;;;;;;;348.25;79.72;;;;;;;-145.45;100.00;62759.84;5327190;27;20051;-83
2021/12/06 08:11:26;;;;;;;379.60;81.80;;;;;;;-145.45;100.00;62759.84;5327442;27;20361;-83
2021/12/06 08:13:58;;;;;;;390.70;84.65;;;;;;;-145.45;100.00;62759.84;5327787;27;20016;-84
2021/12/06 08:16:33;;;;;;;408.02;86.22;;;;;;;-145.45;100.00;62759.84;5309221;28;20105;-83
2021/12/06 08:19:05;;;;;;;458.90;87.45;;;;;;;-145.45;100.00;62759.84;5304942;28;20118;-83
2021/12/06 08:21:37;;;;;;;390.00;83.32;;;;;;;-145.45;100.00;62759.84;5306389;28;20075;-83
2021/12/06 08:24:09;;;;;;;369.88;76.03;;;;;;;-145.45;100.00;62759.84;5304723;28;20031;-83
2021/12/06 08:26:42;;;;;;;373.50;81.90;;;;;;;-145.45;100.00;62759.84;5306711;28;20024;-83
2021/12/06 08:29:16;;;;;;;355.73;79.68;;;;;;;-145.45;100.00;62759.84;5305566;28;20024;-83
2021/12/06 08:31:48;;;;;;;350.63;82.38;;;;;;;-145.45;100.00;62759.84;5305767;28;20027;-83
2021/12/06 08:34:19;;;;;;;379.52;80.10;;;;;;;-145.45;100.00;62759.84;5305449;28;20024;-83
2021/12/06 08:36:51;;;;;;;398.70;85.13;;;;;;;-145.45;100.00;62759.84;5303060;28;20028;-84
2021/12/06 08:39:23;;;;;;;374.67;86.88;;;;;;;-145.45;100.00;62759.84;5303947;27;20031;-84
2021/12/06 08:41:54;;;;;;;321.45;78.82;;;;;;;-145.45;100.00;62759.84;5320160;27;20047;-84
2021/12/06 08:44:26;;;;;;;314.08;76.68;;;;;;;-145.45;100.00;62759.84;5326483;27;20082;-84
2021/12/06 08:47:02;;;;;;;308.75;74.85;;;;;;;-145.45;100.00;62759.84;5310812;28;20012;-82
2021/12/06 08:49:34;;;;;;;334.90;78.93;;;;;;;-145.45;100.00;62759.84;5328019;28;20020;-84
2021/12/06 08:52:06;;;;;;;323.35;79.63;;;;;;;-145.45;100.00;62759.84;5329146;27;20066;-83
2021/12/06 08:54:37;;;;;;;302.38;75.97;;;;;;;-145.45;100.00;62759.84;5335038;27;20031;-84
2021/12/06 08:57:09;;;;;;;364.83;89.18;;;;;;;-145.45;100.00;62759.84;5311692;28;20557;-84
2021/12/06 08:59:41;;;;;;;304.83;78.45;;;;;;;-145.45;100.00;62759.84;5312364;28;20078;-83
2021/12/06 09:02:17;;;;;;;275.48;73.20;;;;;;;-145.45;100.00;62759.84;5312780;28;20082;-83
2021/12/06 09:04:49;;;;;;;320.40;85.72;;;;;;;-145.45;100.00;62759.84;5309910;28;20157;-83
2021/12/06 09:07:20;;;;;;;310.23;79.90;;;;;;;-145.45;100.00;62759.84;5307821;28;20427;-83
2021/12/06 09:09:55;;;;;;;307.23;79.07;;;;;;;-145.45;100.00;62759.84;5326641;28;20024;-83
2021/12/06 09:12:30;;;;;;;277.90;74.30;;;;;;;-145.45;100.00;62759.84;5307915;28;20035;-83
2021/12/06 09:15:07;;;;;;;275.42;70.45;;;;;;;-145.45;100.00;62759.84;5306795;28;20490;-84
2021/12/06 09:17:41;;;;;;;271.17;67.38;;;;;;;-145.45;100.00;62759.84;5327833;28;20473;-84
2021/12/06 09:20:14;;;;;;;244.98;72.28;;;;;;;-145.45;100.00;62759.84;5309663;28;20040;-85
2021/12/06 09:22:48;;;;;;;240.30;64.40;;;;;;;-145.45;100.00;62759.84;5310973;28;20139;-83
2021/12/06 09:25:19;;;;;;;248.32;64.00;;;;;;;-145.45;100.00;62759.84;5310326;28;20020;-82
2021/12/06 09:27:51;;;;;;;262.58;67.40;;;;;;;-145.45;100.00;62759.84;5310040;28;20119;-83
2021/12/06 09:30:26;;;;;;;240.80;63.53;;;;;;;-145.45;100.00;62759.84;5309329;28;20047;-83
2021/12/06 09:33:00;;;;;;;254.10;64.43;;;;;;;-145.45;100.00;62759.84;5317355;28;20027;-82
2021/12/06 09:35:35;;;;;;;278.45;66.97;;;;;;;-145.45;100.00;62759.84;5309741;28;20043;-83
2021/12/06 09:38:08;;;;;;;248.88;62.10;;;;;;;-145.45;100.00;62759.84;5308890;28;20044;-83
2021/12/06 09:40:43;;;;;;;254.50;69.32;;;;;;;-145.45;100.00;62759.84;5308487;28;20044;-83
2021/12/06 09:43:16;;;;;;;244.35;70.57;;;;;;;-145.45;100.00;62759.84;5321467;28;20446;-84
2021/12/06 09:45:48;;;;;;;219.88;61.35;;;;;;;-145.45;100.00;62759.84;5310140;28;20024;-82
2021/12/06 09:48:21;;;;;;;249.10;62.42;;;;;;;-145.45;100.00;62759.84;5315981;28;20082;-83
2021/12/06 09:50:56;;;;;;;283.33;71.50;;;;;;;-145.45;100.00;62759.84;5316348;27;20029;-84
2021/12/06 09:53:31;;;;;;;273.63;61.72;;;;;;;-145.45;100.00;62759.84;5322157;28;20028;-82
2021/12/06 09:56:13;;;;;;;385.67;73.25;;;;;;;-145.45;100.00;62759.84;5310425;28;20465;-84
2021/12/06 09:58:45;;;;;;;347.80;62.58;;;;;;;-145.45;100.00;62759.84;5309226;28;20515;-82
2021/12/06 10:01:24;;;;;;;380.67;63.97;;;;;;;-145.45;100.00;62759.84;5306433;28;20439;-83
2021/12/06 10:03:58;;;;;;;441.38;65.20;;;;;;;-145.45;100.00;62759.84;5319740;28;20449;-83
2021/12/06 10:06:30;;;;;;;423.88;64.97;;;;;;;-145.45;100.00;62759.84;5318146;27;20637;-83
2021/12/06 10:09:06;;;;;;;430.60;66.18;;;;;;;-145.45;100.00;62759.84;5307165;27;20384;-83
2021/12/06 10:11:42;;;;;;;401.02;66.32;;;;;;;-145.45;100.00;62759.84;5329891;27;20518;-83
2021/12/06 10:14:15;;;;;;;448.10;68.60;;;;;;;-145.45;100.00;62759.84;5319430;28;20028;-83
2021/12/06 10:16:47;;;;;;;412.08;62.45;;;;;;;-145.45;100.00;62759.84;5309735;28;20020;-83
2021/12/06 10:19:21;;;;;;;400.10;65.57;;;;;;;-145.45;100.00;62759.84;5307462;28;20389;-83
2021/12/06 10:21:53;;;;;;;351.25;57.20;;;;;;;-145.45;100.00;62759.84;5326567;28;20379;-83
2021/12/06 10:24:30;;;;;;;359.67;63.17;;;;;;;-145.45;100.00;62759.84;5306053;28;20492;-83
2021/12/06 10:27:12;;;;;;;293.40;55.65;;;;;;;-145.45;100.00;62759.84;5306112;28;20024;-84
2021/12/06 10:29:53;;;;;;;245.13;50.15;;;;;;;-145.45;100.00;62759.84;5308381;28;20062;-84
2021/12/06 10:32:27;;;;;;;247.70;55.25;;;;;;;-145.45;100.00;62759.84;5306858;28;20020;-84
2021/12/06 10:35:09;;;;;;;242.60;51.97;;;;;;;-145.45;100.00;62759.84;5307189;28;20421;-82
2021/12/06 10:37:48;;;;;;;218.65;53.28;;;;;;;-145.45;100.00;62759.84;5326347;28;20028;-83
2021/12/06 10:40:34;;;;;;;183.98;47.67;;;;;;;-145.45;100.00;62759.84;5305851;28;20052;-83
2021/12/06 10:43:11;;;;;;;161.43;47.10;;;;;;;-145.45;100.00;62759.84;5307129;28;20024;-83
2021/12/06 10:45:47;;;;;;;163.18;44.08;;;;;;;-145.45;100.00;62759.84;5307893;28;20024;-83
2021/12/06 10:48:23;;;;;;;154.35;48.38;;;;;;;-145.45;100.00;62759.84;5307210;27;20020;-85
2021/12/06 10:50:57;;;;;;;147.90;45.90;;;;;;;-145.45;100.00;62759.84;5328199;27;20050;-84
2021/12/06 10:53:36;;;;;;;156.35;52.55;;;;;;;-145.45;100.00;62759.84;5329067;27;20063;-83
2021/12/06 10:56:25;;;;;;;147.82;52.85;;;;;;;-145.45;100.00;62759.84;5305245;28;20120;-84
2021/12/06 10:58:57;;;;;;;125.25;44.30;;;;;;;-145.45;100.00;62759.84;5301223;28;20508;-83
2021/12/06 11:01:35;;;;;;;116.30;44.40;;;;;;;-145.45;100.00;62759.84;5307853;28;20032;-84
2021/12/06 11:04:10;;;;;;;98.80;40.22;;;;;;;-145.45;100.00;62759.84;5326903;27;20066;-84
2021/12/06 11:06:46;;;;;;;97.30;41.25;;;;;;;-145.45;100.00;62759.84;5328462;27;20020;-84
2021/12/06 11:09:23;;;;;;;94.82;38.50;;;;;;;-145.45;100.00;62759.84;5315978;27;20035;-84
2021/12/06 11:12:01;;;;;;;102.00;36.95;;;;;;;-145.45;100.00;62759.84;5307726;27;20548;-83
2021/12/06 11:14:41;;;;;;;98.95;35.95;;;;;;;-145.45;100.00;62759.84;5293510;28;20464;-84
2021/12/06 11:17:18;;;;;;;87.18;33.30;;;;;;;-145.45;100.00;62759.84;5308319;28;20127;-83
2021/12/06 11:19:51;;;;;;;91.72;34.25;;;;;;;-145.45;100.00;62759.84;5309746;28;20034;-84
2021/12/06 11:22:26;;;;;;;91.53;32.42;;;;;;;-145.45;100.00;62759.84;5297567;28;20036;-83
2021/12/06 11:25:01;;;;;;;84.07;31.67;;;;;;;-145.45;100.00;62759.84;5310969;28;20020;-83